Time;durP1;ratioP1;P1;durP2;ratioP2;P2;SDS_P1;SDS_P2;PMS_P1;PMS_P2;Temp;Humidity;BMP_temperature;BMP_pressure;BME280_temperature;BME280_humidity;BME280_pressure;Samples;Min_cycle;Max_cycle;Signal;HPM_P1;HPM_P2
2024/02/07 00:02:19;;;;;;;4.70;4.30;;;7.10;50.80;;;;;;5026904;28;20261;-65
2024/02/07 00:04:46;;;;;;;4.30;3.90;;;7.10;51.10;;;;;;5018649;28;20229;-65
2024/02/07 00:07:12;;;;;;;4.47;4.07;;;7.10;51.00;;;;;;5022798;28;20237;-66
2024/02/07 00:09:40;;;;;;;4.47;4.07;;;7.00;51.10;;;;;;5024870;28;20218;-65
2024/02/07 00:12:06;;;;;;;4.60;4.20;;;7.10;51.00;;;;;;5031046;28;20237;-65
2024/02/07 00:14:33;;;;;;;4.63;4.13;;;7.10;51.30;;;;;;5031240;28;20675;-65
2024/02/07 00:16:59;;;;;;;4.67;4.20;;;7.10;51.00;;;;;;5026954;28;20209;-65
2024/02/07 00:19:26;;;;;;;4.03;3.73;;;7.10;51.00;;;;;;5025233;28;20224;-65
2024/02/07 00:21:52;;;;;;;4.77;4.30;;;7.20;50.90;;;;;;5020237;28;20232;-65
2024/02/07 00:24:19;;;;;;;4.30;3.90;;;7.00;51.00;;;;;;5016188;28;20612;-66
2024/02/07 00:26:47;;;;;;;5.17;4.10;;;7.00;51.30;;;;;;5030889;28;20245;-65
2024/02/07 00:29:14;;;;;;;4.63;4.23;;;7.10;51.30;;;;;;5027119;28;20312;-66
2024/02/07 00:31:40;;;;;;;4.20;3.90;;;7.10;51.30;;;;;;5020778;28;20233;-65
2024/02/07 00:34:07;;;;;;;4.50;4.10;;;7.20;51.10;;;;;;5028674;28;20206;-66
2024/02/07 00:36:33;;;;;;;4.47;4.07;;;7.00;51.30;;;;;;5034116;28;20693;-66
2024/02/07 00:39:00;;;;;;;5.07;3.70;;;7.00;51.40;;;;;;5024702;28;20271;-66
2024/02/07 00:41:27;;;;;;;4.40;4.00;;;6.90;51.60;;;;;;5028888;28;20279;-66
2024/02/07 00:43:53;;;;;;;4.67;4.03;;;7.00;51.50;;;;;;5032954;28;20248;-66
2024/02/07 00:46:20;;;;;;;4.50;4.10;;;6.90;51.80;;;;;;5034622;28;20227;-66
2024/02/07 00:48:46;;;;;;;5.17;4.10;;;6.80;51.80;;;;;;5034709;28;20260;-66
2024/02/07 00:51:13;;;;;;;4.40;4.00;;;6.90;51.80;;;;;;5026279;28;20799;-65
2024/02/07 00:53:40;;;;;;;4.10;3.80;;;7.00;51.50;;;;;;5034456;28;20237;-66
2024/02/07 00:56:06;;;;;;;5.03;3.80;;;6.90;51.90;;;;;;5026871;28;20213;-65
2024/02/07 00:58:34;;;;;;;4.53;4.13;;;6.90;51.90;;;;;;5023123;28;20271;-66
2024/02/07 01:01:00;;;;;;;4.40;4.00;;;6.90;51.90;;;;;;5028270;28;20247;-66
2024/02/07 01:03:27;;;;;;;4.50;4.10;;;6.90;51.90;;;;;;5033967;28;20209;-65
2024/02/07 01:05:53;;;;;;;4.60;4.20;;;6.80;51.80;;;;;;5020860;28;20210;-65
2024/02/07 01:08:20;;;;;;;4.87;4.37;;;6.80;51.90;;;;;;5033447;28;20260;-66
2024/02/07 01:10:46;;;;;;;4.57;4.10;;;6.90;51.80;;;;;;5034305;28;20209;-66
2024/02/07 01:13:13;;;;;;;4.80;4.40;;;6.90;51.90;;;;;;5026483;28;20267;-66
2024/02/07 01:15:40;;;;;;;5.13;4.40;;;6.80;51.80;;;;;;5022834;28;20205;-66
2024/02/07 01:18:06;;;;;;;4.57;4.17;;;6.80;52.10;;;;;;5026726;28;20206;-66
2024/02/07 01:20:33;;;;;;;4.37;4.03;;;6.90;51.90;;;;;;5033898;28;20204;-65
2024/02/07 01:23:00;;;;;;;4.80;4.40;;;6.80;51.80;;;;;;5024670;28;20727;-65
2024/02/07 01:25:26;;;;;;;5.33;4.33;;;6.90;51.90;;;;;;5025995;28;20753;-66
2024/02/07 01:27:54;;;;;;;5.47;3.90;;;6.80;51.80;;;;;;5031316;28;20252;-66
2024/02/07 01:30:21;;;;;;;5.53;4.00;;;6.90;51.90;;;;;;5026347;28;20227;-66
2024/02/07 01:32:48;;;;;;;4.30;4.00;;;6.90;51.90;;;;;;5028949;28;20259;-65
2024/02/07 01:35:14;;;;;;;4.87;3.87;;;6.90;51.90;;;;;;5028416;28;20289;-64
2024/02/07 01:37:42;;;;;;;4.60;4.20;;;6.90;51.90;;;;;;5029916;28;20236;-65
2024/02/07 01:40:10;;;;;;;4.57;4.13;;;6.90;51.90;;;;;;5033216;28;20905;-65
2024/02/07 01:42:36;;;;;;;5.57;4.67;;;6.90;51.90;;;;;;5033717;28;20240;-64
2024/02/07 01:45:03;;;;;;;4.43;4.00;;;6.90;51.90;;;;;;5031847;28;20256;-65
2024/02/07 01:47:30;;;;;;;4.50;4.10;;;6.90;51.90;;;;;;5025898;28;20646;-64
2024/02/07 01:49:56;;;;;;;4.33;3.97;;;6.80;52.00;;;;;;5032583;28;20250;-64
2024/02/07 01:52:23;;;;;;;5.10;4.60;;;6.80;52.00;;;;;;5017906;28;20326;-65
2024/02/07 01:54:49;;;;;;;4.87;4.47;;;6.80;52.00;;;;;;5021750;28;20240;-65
2024/02/07 01:57:16;;;;;;;4.73;4.20;;;6.80;52.20;;;;;;5033393;28;20266;-64
2024/02/07 01:59:42;;;;;;;5.27;4.30;;;6.80;52.30;;;;;;5033426;28;20205;-64
2024/02/07 02:02:09;;;;;;;4.87;4.13;;;6.90;51.90;;;;;;5032711;28;20606;-64
2024/02/07 02:04:35;;;;;;;5.47;4.17;;;6.90;51.90;;;;;;5026167;28;20237;-64
2024/02/07 02:07:02;;;;;;;5.17;4.40;;;6.90;51.90;;;;;;5033966;28;20315;-65
2024/02/07 02:09:28;;;;;;;4.37;3.97;;;6.90;52.00;;;;;;5026242;28;20240;-65
2024/02/07 02:11:55;;;;;;;4.43;4.03;;;6.80;51.90;;;;;;5027756;28;20229;-65
2024/02/07 02:14:22;;;;;;;4.63;4.20;;;6.90;51.90;;;;;;5029453;28;20209;-64
2024/02/07 02:16:48;;;;;;;4.33;3.93;;;6.80;52.10;;;;;;5033129;28;20209;-64
2024/02/07 02:19:17;;;;;;;4.47;4.07;;;6.80;52.20;;;;;;5031265;28;20244;-64
2024/02/07 02:21:50;;;;;;;5.77;4.00;;;6.80;52.10;;;;;;5015883;28;20287;-64
2024/02/07 02:24:16;;;;;;;5.30;4.73;;;6.90;51.90;;;;;;5031811;28;20237;-64
2024/02/07 02:26:49;;;;;;;4.50;3.60;;;6.90;51.90;;;;;;5026946;28;20236;-64
2024/02/07 02:29:20;;;;;;;4.87;4.00;;;6.90;51.90;;;;;;5030371;28;20220;-64
2024/02/07 02:31:46;;;;;;;4.00;3.70;;;7.00;51.90;;;;;;5026483;28;20711;-64
2024/02/07 02:34:13;;;;;;;4.97;4.57;;;6.90;51.90;;;;;;5032318;28;20676;-64
2024/02/07 02:36:39;;;;;;;4.00;3.70;;;6.90;51.90;;;;;;5023925;28;20209;-64
2024/02/07 02:39:06;;;;;;;4.60;3.90;;;6.90;51.70;;;;;;5029851;28;20232;-64
2024/02/07 02:41:33;;;;;;;4.07;3.70;;;6.90;51.70;;;;;;5029450;28;20231;-64
2024/02/07 02:44:00;;;;;;;5.33;3.80;;;6.90;51.70;;;;;;5028827;28;20213;-64
2024/02/07 02:46:26;;;;;;;3.97;3.67;;;6.90;51.50;;;;;;5018750;28;20295;-64
2024/02/07 02:48:53;;;;;;;3.67;3.37;;;7.00;51.50;;;;;;5032589;28;20303;-64
2024/02/07 02:51:19;;;;;;;4.27;3.83;;;6.90;51.70;;;;;;5030777;28;20261;-64
2024/02/07 02:53:46;;;;;;;3.73;3.43;;;6.90;51.90;;;;;;5017552;28;20221;-64
2024/02/07 02:56:13;;;;;;;3.60;3.23;;;6.90;51.50;;;;;;5030386;28;20208;-64
2024/02/07 02:58:39;;;;;;;3.63;3.20;;;7.00;51.80;;;;;;5031726;28;20777;-63
2024/02/07 03:01:06;;;;;;;6.80;3.77;;;7.00;51.50;;;;;;5025299;28;20229;-64
2024/02/07 03:03:33;;;;;;;4.70;3.70;;;7.00;51.60;;;;;;5024410;28;20205;-64
2024/02/07 03:06:00;;;;;;;4.00;3.60;;;6.90;51.60;;;;;;5029862;28;20223;-63
2024/02/07 03:08:42;;;;;;;3.47;3.23;;;6.90;52.30;;;;;;5031583;28;20268;-64
2024/02/07 03:11:09;;;;;;;4.17;3.87;;;7.00;51.50;;;;;;5023783;28;20750;-64
2024/02/07 03:13:37;;;;;;;4.70;3.13;;;7.00;51.50;;;;;;5031134;28;20209;-64
2024/02/07 03:16:05;;;;;;;3.73;3.43;;;6.90;51.50;;;;;;5030601;28;20249;-66
2024/02/07 03:18:32;;;;;;;3.87;3.43;;;6.90;51.40;;;;;;5025990;28;20200;-66
2024/02/07 03:20:58;;;;;;;6.20;3.77;;;7.00;51.30;;;;;;5024539;28;20213;-66
2024/02/07 03:23:27;;;;;;;3.60;3.23;;;7.10;51.10;;;;;;5024224;28;20205;-66
2024/02/07 03:25:54;;;;;;;4.67;3.63;;;7.00;51.20;;;;;;5031743;28;20236;-66
2024/02/07 03:28:21;;;;;;;4.23;3.10;;;6.90;51.60;;;;;;5024370;28;20663;-66
2024/02/07 03:30:47;;;;;;;4.70;4.30;;;6.90;51.80;;;;;;5029153;28;20206;-65
2024/02/07 03:33:14;;;;;;;3.73;3.43;;;7.00;51.30;;;;;;5032440;28;20208;-66
2024/02/07 03:35:40;;;;;;;4.13;3.27;;;7.00;51.20;;;;;;5026474;28;20228;-66
2024/02/07 03:38:07;;;;;;;4.27;3.43;;;7.00;51.00;;;;;;5021808;28;20263;-65
2024/02/07 03:40:34;;;;;;;4.50;3.30;;;6.90;51.20;;;;;;5031892;28;20223;-65
2024/02/07 03:43:00;;;;;;;3.90;3.50;;;7.00;50.90;;;;;;5031035;28;20229;-65
2024/02/07 03:45:30;;;;;;;3.60;3.30;;;7.00;50.80;;;;;;5024032;28;20283;-66
2024/02/07 03:47:57;;;;;;;3.17;2.87;;;6.90;50.90;;;;;;5022906;28;20665;-66
2024/02/07 03:50:25;;;;;;;3.60;3.30;;;6.90;50.70;;;;;;5031088;28;20261;-66
2024/02/07 03:52:51;;;;;;;3.83;3.43;;;6.90;50.60;;;;;;5027907;28;20287;-65
2024/02/07 03:55:18;;;;;;;4.20;3.57;;;6.90;50.50;;;;;;5021297;28;20245;-66
2024/02/07 03:57:45;;;;;;;3.80;3.10;;;7.00;50.60;;;;;;5028588;28;20294;-65
2024/02/07 04:00:13;;;;;;;5.33;3.27;;;6.90;50.50;;;;;;5019842;28;20235;-66
2024/02/07 04:02:39;;;;;;;3.63;3.20;;;7.00;50.20;;;;;;5017523;28;20231;-66
2024/02/07 04:05:07;;;;;;;4.10;3.50;;;6.90;50.20;;;;;;5032967;28;20208;-66
2024/02/07 04:07:34;;;;;;;5.30;3.40;;;6.90;50.10;;;;;;5034193;28;20647;-66
2024/02/07 04:10:00;;;;;;;4.83;3.20;;;7.00;50.00;;;;;;5032185;28;20232;-66
2024/02/07 05:17:13;;;;;;;5.80;3.57;;;7.10;49.60;;;;;;5033928;28;20192;-65
2024/02/07 05:19:40;;;;;;;4.03;3.47;;;7.10;49.70;;;;;;5029212;28;20201;-66
2024/02/07 05:22:06;;;;;;;3.90;3.50;;;7.10;49.60;;;;;;5033588;28;20229;-66
2024/02/07 05:24:33;;;;;;;4.67;4.13;;;7.20;49.50;;;;;;5028216;28;20286;-65
2024/02/07 05:27:06;;;;;;;3.40;3.10;;;7.20;49.60;;;;;;5026247;28;20221;-66
2024/02/07 05:29:32;;;;;;;5.47;3.93;;;7.20;49.60;;;;;;5024122;28;20247;-66
2024/02/07 05:31:59;;;;;;;3.73;3.43;;;7.20;49.50;;;;;;5026391;28;20620;-66
2024/02/07 05:34:25;;;;;;;6.77;3.33;;;7.20;49.60;;;;;;5027083;28;20243;-65
2024/02/07 05:36:52;;;;;;;6.33;3.73;;;7.30;49.60;;;;;;5033592;28;20208;-66
2024/02/07 05:39:18;;;;;;;5.03;3.37;;;7.30;49.30;;;;;;5030905;28;20206;-66
2024/02/07 05:41:45;;;;;;;5.07;3.90;;;7.30;49.00;;;;;;5034037;28;20836;-66
2024/02/07 05:44:12;;;;;;;5.53;3.83;;;7.40;49.00;;;;;;5025967;28;20557;-65
2024/02/07 05:46:38;;;;;;;5.63;3.27;;;7.40;49.00;;;;;;5017071;28;20209;-65
2024/02/07 05:49:05;;;;;;;4.87;3.40;;;7.50;48.90;;;;;;5029730;28;20695;-66
2024/02/07 05:51:32;;;;;;;4.70;3.40;;;7.50;48.90;;;;;;5032815;28;20231;-65
2024/02/07 05:53:58;;;;;;;4.67;3.40;;;7.50;49.00;;;;;;5032320;28;20787;-65
2024/02/07 05:56:25;;;;;;;4.80;3.50;;;7.50;49.00;;;;;;5033268;28;20239;-66
2024/02/07 05:58:52;;;;;;;4.27;3.03;;;7.50;48.80;;;;;;5033154;28;20205;-66
2024/02/07 06:01:18;;;;;;;5.13;3.37;;;7.60;48.60;;;;;;5016118;28;20229;-66
2024/02/07 06:03:50;;;;;;;5.27;3.43;;;7.60;48.50;;;;;;5027280;28;20243;-65
2024/02/07 06:06:16;;;;;;;7.33;2.83;;;7.60;48.60;;;;;;5033334;28;20217;-66
2024/02/07 06:08:45;;;;;;;5.00;3.33;;;7.60;49.20;;;;;;5032687;28;20293;-66
2024/02/07 06:11:12;;;;;;;6.50;3.00;;;7.60;48.60;;;;;;5032146;28;20229;-65
2024/02/07 06:13:39;;;;;;;9.10;3.93;;;7.60;48.10;;;;;;5032396;28;20216;-65
2024/02/07 06:16:05;;;;;;;5.47;3.23;;;7.60;48.50;;;;;;5031422;28;20297;-66
2024/02/07 06:18:32;;;;;;;5.93;3.10;;;7.60;48.30;;;;;;5024520;28;20267;-66
2024/02/07 06:20:59;;;;;;;5.00;3.17;;;7.60;48.10;;;;;;5027884;28;20646;-66
2024/02/07 06:23:25;;;;;;;4.37;2.90;;;7.60;48.50;;;;;;5025028;28;20213;-66
2024/02/07 06:25:52;;;;;;;5.70;3.70;;;7.70;48.10;;;;;;5032242;28;20240;-66
2024/02/07 06:28:18;;;;;;;4.70;3.43;;;7.70;48.10;;;;;;5025441;28;20268;-66
2024/02/07 06:30:45;;;;;;;4.40;3.17;;;7.70;48.80;;;;;;5029884;28;20238;-66
2024/02/07 06:33:11;;;;;;;4.33;2.90;;;7.70;48.10;;;;;;5030906;28;20212;-66
2024/02/07 06:35:38;;;;;;;5.93;3.17;;;7.60;48.20;;;;;;5018673;28;20208;-66
2024/02/07 06:38:04;;;;;;;5.10;3.20;;;7.70;48.10;;;;;;5032128;28;20241;-66
2024/02/07 06:40:31;;;;;;;3.93;3.50;;;7.70;48.10;;;;;;5031474;28;20201;-65
2024/02/07 06:42:57;;;;;;;4.07;2.93;;;7.70;48.60;;;;;;5032827;28;20317;-66
2024/02/07 06:45:24;;;;;;;5.73;3.17;;;7.60;48.10;;;;;;5032624;28;20299;-65
2024/02/07 06:47:50;;;;;;;4.10;2.90;;;7.60;48.00;;;;;;5032624;28;20244;-66
2024/02/07 06:50:17;;;;;;;3.37;2.77;;;7.70;48.10;;;;;;5031934;28;20665;-65
2024/02/07 06:52:43;;;;;;;5.67;2.83;;;7.70;48.10;;;;;;5016700;28;20714;-66
2024/02/07 06:55:10;;;;;;;4.40;2.80;;;7.80;48.20;;;;;;5031613;28;20250;-66
2024/02/07 06:57:36;;;;;;;4.73;3.30;;;7.80;48.90;;;;;;5011343;28;20236;-66
2024/02/07 07:00:03;;;;;;;3.37;3.07;;;7.70;48.10;;;;;;5024576;28;20201;-66
2024/02/07 07:02:29;;;;;;;8.37;3.43;;;7.70;48.10;;;;;;5013901;28;20233;-65
2024/02/07 07:04:56;;;;;;;3.10;2.77;;;7.80;48.20;;;;;;5013487;28;20295;-65
2024/02/07 07:07:22;;;;;;;3.13;2.53;;;7.80;48.20;;;;;;5026622;28;20213;-65
2024/02/07 07:09:49;;;;;;;6.60;2.90;;;7.80;48.20;;;;;;5011789;28;20225;-66
2024/02/07 07:12:16;;;;;;;5.03;2.77;;;7.80;48.20;;;;;;5018435;28;20335;-66
2024/02/07 07:14:43;;;;;;;5.20;3.07;;;7.80;48.20;;;;;;5014489;28;20206;-65
2024/02/07 07:17:09;;;;;;;4.17;2.90;;;7.90;48.20;;;;;;5019749;28;20217;-66
2024/02/07 07:19:36;;;;;;;3.87;3.00;;;7.90;48.30;;;;;;5017608;28;20257;-65
2024/02/07 07:22:03;;;;;;;4.97;2.73;;;7.90;47.90;;;;;;5024453;28;20233;-66
2024/02/07 07:24:29;;;;;;;3.40;2.60;;;8.00;47.80;;;;;;5017945;28;20352;-65
2024/02/07 07:26:56;;;;;;;6.23;2.80;;;8.00;47.60;;;;;;4995995;28;20236;-65
2024/02/07 07:29:22;;;;;;;4.87;2.67;;;8.10;47.70;;;;;;5010621;28;20231;-65
2024/02/07 07:31:49;;;;;;;4.60;2.67;;;8.10;47.50;;;;;;5015725;28;20233;-65
2024/02/07 07:34:15;;;;;;;9.57;4.20;;;8.20;47.30;;;;;;5015867;28;20234;-65
2024/02/07 07:36:42;;;;;;;3.60;2.80;;;8.20;47.70;;;;;;5022238;28;20234;-66
2024/02/07 07:39:10;;;;;;;4.20;2.63;;;8.20;47.50;;;;;;5018913;28;20208;-65
2024/02/07 07:41:36;;;;;;;3.13;2.40;;;8.20;47.20;;;;;;5001917;28;21568;-66
2024/02/07 07:44:03;;;;;;;4.37;2.60;;;8.30;47.40;;;;;;5008569;28;20233;-65
2024/02/07 07:46:29;;;;;;;6.10;4.00;;;8.30;47.10;;;;;;5015808;28;20237;-65
2024/02/07 07:48:56;;;;;;;4.03;2.70;;;8.30;47.40;;;;;;5027399;28;20260;-65
2024/02/07 07:51:22;;;;;;;5.10;2.63;;;8.30;47.40;;;;;;5016279;28;20229;-64
2024/02/07 07:53:49;;;;;;;6.00;2.77;;;8.30;47.10;;;;;;5022742;28;20217;-65
2024/02/07 07:56:15;;;;;;;3.47;2.73;;;8.40;47.00;;;;;;5024366;28;20635;-65
2024/02/07 07:58:43;;;;;;;4.17;2.60;;;8.40;47.00;;;;;;5010242;28;20210;-66
2024/02/07 08:01:10;;;;;;;5.10;2.60;;;8.40;50.10;;;;;;5016791;28;20565;-65
2024/02/07 08:03:36;;;;;;;5.40;2.43;;;8.50;47.70;;;;;;5017314;28;20260;-64
2024/02/07 08:06:03;;;;;;;3.60;2.80;;;8.50;47.40;;;;;;5019637;28;20265;-64
2024/02/07 08:08:29;;;;;;;4.60;3.23;;;8.60;46.60;;;;;;5021285;28;20210;-68
2024/02/07 08:10:56;;;;;;;3.37;2.77;;;8.60;46.60;;;;;;5027465;28;20257;-64
2024/02/07 08:13:22;;;;;;;4.60;2.40;;;8.60;46.70;;;;;;5022264;28;20242;-64
2024/02/07 08:15:49;;;;;;;5.27;2.27;;;8.70;46.50;;;;;;5013636;28;20296;-64
2024/02/07 08:18:15;;;;;;;4.60;2.40;;;8.70;46.50;;;;;;5018534;28;20585;-65
2024/02/07 08:20:42;;;;;;;3.50;2.60;;;8.70;46.30;;;;;;5013918;28;20645;-64
2024/02/07 08:23:08;;;;;;;4.23;2.67;;;8.80;46.20;;;;;;5016783;28;20242;-65
2024/02/07 08:25:35;;;;;;;4.27;2.70;;;8.90;45.90;;;;;;5022773;28;20240;-65
2024/02/07 08:28:02;;;;;;;5.10;2.50;;;8.90;45.90;;;;;;5029320;28;20210;-65
2024/02/07 08:30:28;;;;;;;2.93;2.50;;;9.10;45.50;;;;;;5022666;28;20227;-70
2024/02/07 08:32:55;;;;;;;5.07;2.70;;;9.10;45.20;;;;;;5015660;28;20296;-66
2024/02/07 08:35:22;;;;;;;3.03;2.20;;;9.10;45.60;;;;;;4996117;28;20219;-65
2024/02/07 08:37:48;;;;;;;3.07;2.43;;;9.10;45.30;;;;;;5016249;28;20245;-65
2024/02/07 08:40:15;;;;;;;3.80;2.70;;;9.10;45.30;;;;;;5017510;28;20211;-65
2024/02/07 08:42:44;;;;;;;4.10;2.80;;;9.20;45.40;;;;;;5014725;28;20266;-66
2024/02/07 08:45:12;;;;;;;5.80;2.80;;;9.30;45.10;;;;;;5022077;28;20209;-66
2024/02/07 08:47:38;;;;;;;4.53;2.63;;;9.50;45.00;;;;;;5017058;28;20211;-66
2024/02/07 08:50:05;;;;;;;3.37;2.97;;;9.60;44.70;;;;;;5013301;28;20730;-68
2024/02/07 08:52:31;;;;;;;2.93;2.60;;;9.80;44.40;;;;;;5013015;28;20234;-66
2024/02/07 08:54:58;;;;;;;3.77;2.60;;;10.20;42.30;;;;;;5028920;28;20208;-65
2024/02/07 08:57:27;;;;;;;8.50;2.50;;;10.40;41.80;;;;;;5031768;28;20229;-66
2024/02/07 08:59:54;;;;;;;2.90;2.70;;;10.30;42.30;;;;;;5021139;28;20258;-66
2024/02/07 09:02:20;;;;;;;2.93;2.63;;;10.60;41.60;;;;;;5027106;28;20231;-66
2024/02/07 09:04:47;;;;;;;4.37;2.47;;;10.50;41.30;;;;;;5023638;28;20646;-66
2024/02/07 09:07:14;;;;;;;5.20;2.60;;;10.30;41.40;;;;;;5022427;28;20207;-66
2024/02/07 09:09:41;;;;;;;3.20;2.60;;;10.30;41.70;;;;;;5015654;28;20260;-67
2024/02/07 09:12:08;;;;;;;3.63;2.60;;;10.40;41.80;;;;;;5030254;28;20232;-67
2024/02/07 09:14:35;;;;;;;2.43;2.23;;;10.50;41.10;;;;;;5031333;28;20294;-66
2024/02/07 09:17:02;;;;;;;3.00;2.43;;;10.30;41.60;;;;;;5028123;28;20312;-66
2024/02/07 09:19:29;;;;;;;4.43;2.33;;;10.50;42.40;;;;;;5015614;28;20204;-65
2024/02/07 09:21:55;;;;;;;3.17;2.30;;;10.70;41.00;;;;;;5020869;28;20224;-66
2024/02/07 09:24:22;;;;;;;3.67;2.30;;;11.20;40.50;;;;;;4999250;28;21180;-66
2024/02/07 09:26:49;;;;;;;4.37;2.40;;;11.60;40.00;;;;;;5008038;28;20224;-67
2024/02/07 09:29:15;;;;;;;4.73;3.00;;;11.90;38.90;;;;;;5015281;28;20210;-66
2024/02/07 09:31:42;;;;;;;4.10;2.40;;;12.20;38.00;;;;;;5016292;28;20749;-66
2024/02/07 09:34:08;;;;;;;3.63;2.13;;;12.50;37.50;;;;;;5032111;28;20236;-66
2024/02/07 09:36:38;;;;;;;6.33;2.60;;;12.00;38.10;;;;;;5020467;28;20214;-66
2024/02/07 09:39:05;;;;;;;2.93;1.87;;;11.70;38.60;;;;;;5030166;28;20209;-65
2024/02/07 09:41:31;;;;;;;2.80;2.60;;;11.60;39.40;;;;;;5032759;28;20308;-66
2024/02/07 09:43:58;;;;;;;4.07;2.40;;;11.90;38.70;;;;;;5033339;28;20684;-66
2024/02/07 09:46:25;;;;;;;4.53;2.70;;;12.50;37.50;;;;;;5028776;28;20215;-66
2024/02/07 09:48:53;;;;;;;5.90;2.40;;;12.80;36.90;;;;;;5019408;28;20227;-66
2024/02/07 09:51:20;;;;;;;2.43;2.23;;;13.00;37.40;;;;;;5025028;28;20240;-66
2024/02/07 09:53:46;;;;;;;4.37;2.10;;;13.20;36.50;;;;;;5026882;28;20664;-66
2024/02/07 09:56:13;;;;;;;6.63;2.63;;;13.50;35.70;;;;;;5013370;28;20213;-66
2024/02/07 09:58:39;;;;;;;4.20;2.17;;;13.20;36.00;;;;;;5017886;28;20583;-66
2024/02/07 10:01:06;;;;;;;3.97;2.43;;;13.30;35.50;;;;;;5032797;28;20350;-66
2024/02/07 10:03:33;;;;;;;3.47;2.13;;;13.70;34.90;;;;;;5024517;28;20210;-66
2024/02/07 10:06:00;;;;;;;3.23;2.03;;;14.00;34.00;;;;;;5019400;28;20219;-66
2024/02/07 10:08:27;;;;;;;5.27;2.53;;;14.00;34.00;;;;;;5024096;28;20212;-66
2024/02/07 10:10:54;;;;;;;5.03;2.70;;;14.10;34.20;;;;;;5030561;28;20607;-66
2024/02/07 10:13:20;;;;;;;4.23;2.40;;;13.50;34.50;;;;;;5025409;28;20896;-66
2024/02/07 10:15:47;;;;;;;5.20;2.10;;;12.60;36.50;;;;;;5010013;28;20835;-65
2024/02/07 10:18:13;;;;;;;4.27;2.10;;;12.20;37.20;;;;;;4992458;28;20831;-65
2024/02/07 10:20:40;;;;;;;3.40;2.20;;;12.30;37.50;;;;;;5015556;28;20234;-66
2024/02/07 10:23:07;;;;;;;5.37;2.17;;;12.10;38.10;;;;;;5024448;28;20222;-66
2024/02/07 10:25:33;;;;;;;5.00;2.30;;;12.00;37.60;;;;;;5024493;28;20218;-65
2024/02/07 10:28:00;;;;;;;7.83;2.40;;;11.80;38.20;;;;;;5019967;28;20202;-65
2024/02/07 10:30:26;;;;;;;5.67;2.13;;;11.90;38.10;;;;;;5031718;28;20577;-65
2024/02/07 10:32:53;;;;;;;2.67;2.10;;;12.20;37.60;;;;;;5027379;28;20230;-65
2024/02/07 10:35:19;;;;;;;5.00;2.20;;;12.70;37.10;;;;;;5030272;28;20293;-65
2024/02/07 10:37:45;;;;;;;4.93;1.90;;;12.50;37.50;;;;;;5022007;28;20207;-65
2024/02/07 10:40:12;;;;;;;5.37;2.10;;;12.60;37.30;;;;;;5030454;28;20573;-65
2024/02/07 10:42:39;;;;;;;2.50;2.00;;;12.40;36.80;;;;;;5017706;28;20372;-65
2024/02/07 10:45:05;;;;;;;3.20;2.10;;;12.30;37.60;;;;;;5031493;28;20265;-65
2024/02/07 10:47:32;;;;;;;3.17;2.20;;;12.60;37.10;;;;;;5021449;28;20270;-65
2024/02/07 10:49:58;;;;;;;5.37;2.20;;;13.00;36.30;;;;;;5013543;28;20259;-65
2024/02/07 10:52:25;;;;;;;2.30;1.93;;;13.30;35.70;;;;;;5027787;28;20406;-64
2024/02/07 10:54:51;;;;;;;5.47;2.00;;;13.60;35.30;;;;;;5021512;28;20239;-65
2024/02/07 10:57:18;;;;;;;4.63;2.30;;;12.80;36.10;;;;;;5015875;28;20737;-65
2024/02/07 10:59:45;;;;;;;3.53;2.17;;;12.50;37.50;;;;;;5027054;28;20208;-65
2024/02/07 11:02:12;;;;;;;2.43;2.17;;;12.20;37.40;;;;;;5029281;28;20266;-65
2024/02/07 11:04:39;;;;;;;3.43;1.93;;;12.50;37.50;;;;;;5029041;28;20616;-65
2024/02/07 11:07:06;;;;;;;2.20;1.93;;;13.40;36.30;;;;;;5015702;28;20200;-65
2024/02/07 11:09:33;;;;;;;4.70;2.20;;;13.70;35.10;;;;;;5024925;28;20237;-65
2024/02/07 11:12:00;;;;;;;2.87;1.90;;;13.30;35.20;;;;;;5018545;28;20229;-64
2024/02/07 11:14:26;;;;;;;1.93;1.70;;;12.70;36.10;;;;;;5025864;28;20205;-65
2024/02/07 11:16:53;;;;;;;2.37;1.83;;;12.40;36.70;;;;;;5020074;28;20327;-64
2024/02/07 11:19:19;;;;;;;3.03;1.90;;;13.10;35.90;;;;;;5018117;28;20584;-65
2024/02/07 11:21:46;;;;;;;3.83;1.93;;;14.10;33.60;;;;;;5010662;28;20288;-65
2024/02/07 11:24:14;;;;;;;2.10;2.00;;;14.00;34.00;;;;;;5017230;28;20587;-65
2024/02/07 11:26:41;;;;;;;4.83;2.00;;;13.20;35.00;;;;;;5023057;28;20206;-66
2024/02/07 11:29:07;;;;;;;3.13;1.80;;;12.80;35.50;;;;;;5022399;28;20585;-66
2024/02/07 11:31:34;;;;;;;2.70;2.00;;;12.70;36.00;;;;;;5021974;28;20754;-66
2024/02/07 11:34:01;;;;;;;3.50;2.30;;;12.50;37.00;;;;;;5019647;28;20244;-65
2024/02/07 11:36:27;;;;;;;2.87;2.00;;;12.20;37.20;;;;;;5022686;28;20205;-66
2024/02/07 11:38:54;;;;;;;3.13;2.27;;;12.40;36.70;;;;;;5021396;28;20730;-65
2024/02/07 11:41:21;;;;;;;2.23;2.03;;;12.40;37.00;;;;;;5021292;28;21038;-65
2024/02/07 11:43:49;;;;;;;2.00;1.90;;;12.40;36.40;;;;;;5013158;28;20205;-65
2024/02/07 11:46:15;;;;;;;5.30;2.53;;;12.70;36.40;;;;;;5015662;28;20206;-67
2024/02/07 11:48:42;;;;;;;3.63;2.33;;;12.70;36.50;;;;;;5019132;28;20247;-66
2024/02/07 11:51:08;;;;;;;2.93;1.80;;;13.30;35.20;;;;;;5024304;28;20233;-65
2024/02/07 11:53:35;;;;;;;2.53;2.00;;;12.90;36.00;;;;;;5030551;28;20264;-65
2024/02/07 11:56:01;;;;;;;2.10;1.90;;;13.40;35.50;;;;;;5012373;28;20205;-65
2024/02/07 11:58:28;;;;;;;4.90;1.70;;;13.10;35.20;;;;;;5008783;28;20291;-64
2024/02/07 12:00:54;;;;;;;3.60;1.93;;;12.70;35.80;;;;;;5016012;28;20604;-65
2024/02/07 12:03:21;;;;;;;4.10;2.07;;;12.80;35.80;;;;;;5027071;28;20215;-65
2024/02/07 12:05:47;;;;;;;3.73;1.87;;;12.50;36.30;;;;;;5019899;28;20265;-65
2024/02/07 12:08:14;;;;;;;2.93;1.93;;;12.30;36.60;;;;;;5023968;28;20221;-65
2024/02/07 12:10:40;;;;;;;2.83;2.10;;;12.20;36.80;;;;;;5012225;28;20255;-64
2024/02/07 12:13:07;;;;;;;3.00;1.70;;;12.00;37.40;;;;;;5010637;28;20270;-65
2024/02/07 12:15:35;;;;;;;2.93;2.00;;;12.00;37.20;;;;;;5020395;28;20261;-65
2024/02/07 12:18:02;;;;;;;3.53;2.13;;;11.90;37.50;;;;;;5019240;28;20214;-65
2024/02/07 12:20:29;;;;;;;3.20;2.00;;;11.80;37.50;;;;;;5017708;28;20236;-65
2024/02/07 12:22:55;;;;;;;3.07;2.30;;;11.70;37.90;;;;;;5021129;28;20323;-65
2024/02/07 12:25:22;;;;;;;4.10;2.10;;;11.60;38.10;;;;;;5021204;28;20267;-66
2024/02/07 12:27:49;;;;;;;2.30;1.80;;;11.50;38.70;;;;;;5026603;28;20685;-65
2024/02/07 12:30:15;;;;;;;5.33;2.30;;;11.50;38.60;;;;;;5025578;28;20218;-65
2024/02/07 12:32:42;;;;;;;3.63;2.10;;;11.50;38.40;;;;;;5027631;28;22069;-65
2024/02/07 12:35:09;;;;;;;2.77;2.20;;;11.60;38.60;;;;;;5031260;28;20288;-68
2024/02/07 12:37:35;;;;;;;5.83;2.60;;;11.50;40.00;;;;;;5023907;28;20633;-64
2024/02/07 12:40:02;;;;;;;2.93;2.10;;;11.50;38.40;;;;;;5029911;28;20206;-64
2024/02/07 12:42:29;;;;;;;3.87;2.50;;;11.40;38.40;;;;;;5029890;28;20232;-65
2024/02/07 12:44:56;;;;;;;4.03;2.60;;;11.40;38.70;;;;;;5022991;28;20212;-64
2024/02/07 12:47:23;;;;;;;4.07;2.67;;;11.50;38.70;;;;;;5013785;28;20287;-65
2024/02/07 12:49:49;;;;;;;2.97;2.10;;;11.40;38.40;;;;;;5026356;28;20209;-65
2024/02/07 12:52:16;;;;;;;6.17;4.13;;;11.50;38.30;;;;;;5019935;28;20314;-65
2024/02/07 12:54:42;;;;;;;4.37;2.90;;;11.50;38.00;;;;;;5023992;28;20260;-64
2024/02/07 12:57:09;;;;;;;5.60;2.87;;;11.40;37.80;;;;;;5028150;28;20632;-65
2024/02/07 12:59:35;;;;;;;3.00;2.70;;;11.40;38.10;;;;;;5028215;28;20247;-64
2024/02/07 13:02:02;;;;;;;3.97;2.10;;;11.40;37.80;;;;;;5027476;28;20221;-65
2024/02/07 13:04:29;;;;;;;4.40;3.23;;;11.40;37.80;;;;;;5028813;28;20287;-65
2024/02/07 13:06:55;;;;;;;29.07;19.37;;;11.40;37.90;;;;;;5022265;28;20742;-66
2024/02/07 13:09:22;;;;;;;15.53;11.20;;;11.90;41.60;;;;;;5012057;28;20244;-66
2024/02/07 13:11:48;;;;;;;15.83;10.70;;;12.00;38.70;;;;;;5014314;28;20225;-67
2024/02/07 13:14:15;;;;;;;13.93;11.37;;;12.20;38.30;;;;;;5016742;28;20206;-67
2024/02/07 13:16:43;;;;;;;9.17;7.27;;;12.30;39.20;;;;;;5022357;28;20352;-67
2024/02/07 13:19:12;;;;;;;7.90;4.40;;;12.20;38.20;;;;;;5020914;28;20206;-66
2024/02/07 13:21:39;;;;;;;6.77;4.80;;;12.10;37.70;;;;;;5015422;28;20229;-67
2024/02/07 13:24:05;;;;;;;4.27;2.93;;;12.20;37.90;;;;;;5025163;28;20238;-65
2024/02/07 13:26:32;;;;;;;2.37;2.17;;;12.20;36.00;;;;;;5030162;28;20213;-65
2024/02/07 13:28:58;;;;;;;3.30;1.90;;;11.90;36.30;;;;;;5032715;28;20261;-64
2024/02/07 13:31:25;;;;;;;3.10;2.43;;;11.60;36.70;;;;;;5019806;28;20240;-64
2024/02/07 13:33:51;;;;;;;3.70;2.13;;;11.50;36.60;;;;;;5025284;28;20208;-65
2024/02/07 13:36:18;;;;;;;2.40;1.93;;;11.50;37.20;;;;;;5030484;28;20217;-64
2024/02/07 13:38:44;;;;;;;2.53;2.17;;;11.30;37.10;;;;;;5030242;28;20210;-64
2024/02/07 13:41:11;;;;;;;4.20;2.40;;;11.40;37.00;;;;;;5023704;28;20226;-64
2024/02/07 13:43:38;;;;;;;4.13;1.97;;;11.40;37.30;;;;;;5029556;28;20208;-65
2024/02/07 13:46:04;;;;;;;2.10;1.90;;;11.40;37.30;;;;;;5026043;28;20208;-65
2024/02/07 13:48:31;;;;;;;3.87;1.90;;;11.50;36.80;;;;;;5020230;28;20376;-65
2024/02/07 13:50:59;;;;;;;4.63;2.53;;;11.40;37.00;;;;;;5024626;28;20231;-64
2024/02/07 13:53:25;;;;;;;2.53;2.03;;;11.40;36.80;;;;;;5016947;28;20310;-65
2024/02/07 13:55:52;;;;;;;2.50;2.03;;;11.40;37.10;;;;;;5018349;28;20264;-65